createdAt,value
2019-02-15T10:46:37.788Z,99761.20
2019-02-15T10:50:23.859Z,99759.60
2019-02-15T10:52:53.252Z,99755.98
2019-02-15T10:55:22.835Z,99741.80
2019-02-15T10:57:52.233Z,99746.23
2019-02-15T11:00:21.899Z,99746.23
2019-02-15T11:02:51.319Z,99740.60
2019-02-15T11:05:20.886Z,99740.60
2019-02-15T11:07:50.500Z,99737.62
2019-02-15T11:10:19.922Z,99730.27
2019-02-15T11:12:49.421Z,99728.17
2019-02-15T11:15:18.827Z,99723.70
2019-02-15T11:17:48.239Z,99719.23
2019-02-15T11:20:18.050Z,99722.04
2019-02-15T11:22:47.465Z,99717.69
2019-02-15T11:25:16.942Z,99711.80
2019-02-15T11:27:46.378Z,99703.23
2019-02-15T11:30:15.986Z,99707.27
2019-02-15T11:32:45.415Z,99701.75
2019-02-15T11:35:14.954Z,99696.22
2019-02-15T11:37:44.362Z,99692.03
2019-02-15T11:40:14.395Z,99690.36
2019-02-15T11:42:43.803Z,99686.18
2019-02-15T11:45:13.637Z,99681.05
2019-02-15T11:47:43.085Z,99675.59
2019-02-15T11:50:13.331Z,99673.80
2019-02-15T11:52:42.716Z,99670.18
2019-02-15T11:55:12.313Z,99659.64
2019-02-15T11:57:44.629Z,99661.42
2019-02-15T12:00:18.449Z,99658.36
2019-02-15T12:02:48.397Z,99651.95
2019-02-15T12:05:17.892Z,99652.30
2019-02-15T12:07:47.277Z,99646.16
2019-02-15T12:10:16.698Z,99643.70
2019-02-15T12:12:46.090Z,99633.34
2019-02-15T12:15:15.495Z,99633.56
2019-02-15T12:17:45.005Z,99621.48
2019-02-15T12:20:14.456Z,99618.00
2019-02-15T12:22:44.237Z,99620.89
2019-02-15T12:25:13.765Z,99612.13
2019-02-15T12:27:43.159Z,99608.57
2019-02-15T12:30:13.105Z,99602.53
2019-02-15T12:32:42.674Z,99593.31
2019-02-15T12:35:12.055Z,99591.61
2019-02-15T12:37:41.696Z,99583.86
2019-02-15T12:40:11.086Z,99583.61
2019-02-15T12:42:40.569Z,99579.30
2019-02-15T12:45:10.794Z,99572.15
2019-02-15T12:47:40.219Z,99572.86
2019-02-15T12:50:11.983Z,99567.36
2019-02-15T12:52:41.392Z,99568.34
2019-02-15T12:55:10.985Z,99570.52
2019-02-15T12:57:40.370Z,99558.74
2019-02-15T13:00:12.745Z,99557.09
2019-02-15T13:02:42.148Z,99554.44
2019-02-15T13:05:12.037Z,99548.22
2019-02-15T13:07:41.688Z,99544.66
2019-02-15T13:10:13.076Z,99544.36
2019-02-15T13:12:43.220Z,99544.77
2019-02-15T13:15:12.844Z,99534.78
2019-02-15T13:17:42.256Z,99535.39
2019-02-15T13:20:11.855Z,99521.58
2019-02-15T13:22:41.258Z,99518.14
2019-02-15T13:25:10.667Z,99515.77
2019-02-15T13:27:40.085Z,99507.52
2019-02-15T13:30:11.125Z,99507.66
2019-02-15T13:32:40.617Z,99499.97
2019-02-15T13:35:11.697Z,99502.75
2019-02-15T13:37:41.522Z,99496.88
2019-02-15T13:40:11.029Z,99496.61
2019-02-15T13:42:40.653Z,99495.23
2019-02-15T13:45:11.029Z,99487.28
2019-02-15T13:47:41.048Z,99483.09
2019-02-15T13:50:11.601Z,99485.20
2019-02-15T13:52:40.986Z,99477.25
2019-02-15T13:55:10.724Z,99475.14
2019-02-15T13:57:40.237Z,99471.56
2019-02-15T14:00:11.271Z,99467.50
2019-02-15T14:02:40.817Z,99472.36
2019-02-15T14:05:11.000Z,99468.75
2019-02-15T14:07:40.509Z,99458.35
2019-02-15T14:10:11.169Z,99449.42
2019-02-15T14:12:40.836Z,99445.83
2019-02-15T14:15:11.085Z,99455.83
2019-02-15T14:17:45.316Z,99443.00
2019-02-15T14:20:12.114Z,99442.84
2019-02-15T14:22:41.781Z,99435.43
2019-02-15T14:25:11.494Z,99433.98
2019-02-15T14:27:41.463Z,99428.71
2019-02-15T14:30:11.571Z,99440.36
2019-02-15T14:32:40.967Z,99434.56
2019-02-15T14:35:10.601Z,99435.31
2019-02-15T14:37:40.172Z,99433.48
2019-02-15T14:40:10.036Z,99440.77
2019-02-15T14:42:39.459Z,99428.41
2019-02-15T14:45:09.523Z,99433.22
2019-02-15T14:47:39.043Z,99435.31
2019-02-15T14:50:08.735Z,99435.66
2019-02-15T14:52:38.150Z,99426.73
2019-02-15T14:55:07.932Z,99429.14
2019-02-15T14:57:37.309Z,99434.91
2019-02-15T15:00:09.377Z,99434.00
2019-02-15T15:02:38.810Z,99439.78
2019-02-15T15:05:08.731Z,99440.95
2019-02-15T15:07:38.140Z,99443.30
2019-02-15T15:10:08.593Z,99439.39
2019-02-15T15:12:38.103Z,99436.08
2019-02-15T15:15:08.849Z,99436.66
2019-02-15T15:17:38.380Z,99436.75
2019-02-15T15:20:09.409Z,99427.95
2019-02-15T15:22:38.947Z,99430.16
2019-02-15T15:25:09.886Z,99427.50
2019-02-15T15:27:39.542Z,99422.91
2019-02-15T15:30:10.547Z,99426.50
2019-02-15T15:32:40.011Z,99422.36
2019-02-15T15:35:09.758Z,99416.80
2019-02-15T15:37:39.192Z,99415.42
2019-02-15T15:40:09.905Z,99417.93
2019-02-15T15:42:39.421Z,99418.51
2019-02-15T15:45:10.163Z,99425.91
2019-02-15T15:47:39.641Z,99423.88
2019-02-15T15:50:10.307Z,99427.08
2019-02-15T15:52:39.840Z,99422.84
2019-02-15T15:55:10.644Z,99427.04
2019-02-15T15:57:40.083Z,99424.95
2019-02-15T16:00:11.163Z,99426.48
2019-02-15T16:02:41.174Z,99425.38
2019-02-15T16:05:10.731Z,99423.25
2019-02-15T16:07:40.125Z,99422.27
2019-02-15T16:10:10.936Z,99424.80
2019-02-15T16:12:40.368Z,99419.77
2019-02-15T16:15:10.869Z,99422.25
2019-02-15T16:17:40.406Z,99425.35
2019-02-15T16:20:10.780Z,99431.88
2019-02-15T16:22:40.385Z,99428.73
2019-02-15T16:25:10.087Z,99430.19
2019-02-15T16:27:39.516Z,99429.45
2019-02-15T16:30:10.447Z,99437.02
2019-02-15T16:32:39.867Z,99439.13
2019-02-15T16:35:09.689Z,99439.11
2019-02-15T16:37:39.141Z,99435.41
2019-02-15T16:40:11.777Z,99443.29
2019-02-15T16:42:41.280Z,99443.31
2019-02-15T16:45:13.333Z,99445.50
2019-02-15T16:47:42.833Z,99456.06
2019-02-15T16:50:12.269Z,99456.62
2019-02-15T16:52:41.664Z,99446.35
2019-02-15T16:55:13.194Z,99452.32
2019-02-15T16:57:42.226Z,99449.61
2019-02-15T17:00:11.623Z,99448.27
2019-02-15T17:02:41.105Z,99447.45
2019-02-15T17:05:10.764Z,99443.67
2019-02-15T17:07:40.219Z,99450.15
2019-02-15T17:10:09.778Z,99453.39
2019-02-15T17:12:39.163Z,99453.88
2019-02-15T17:15:09.482Z,99451.42
2019-02-15T17:17:39.068Z,99451.63
2019-02-15T17:20:09.356Z,99449.72
2019-02-15T17:22:39.074Z,99450.81
2019-02-15T17:25:09.542Z,99458.34
2019-02-15T17:27:38.971Z,99454.53
2019-02-15T17:30:09.127Z,99456.42
2019-02-15T17:32:38.616Z,99450.45
2019-02-15T17:35:08.964Z,99458.75
2019-02-15T17:37:38.371Z,99453.84
2019-02-15T17:40:09.200Z,99456.28
